Strona główna
METAR-TAF:

METAR-TAF

Lotnisko :

Pontoise, Francja

Szerokość geograficzna: 49-05-48N, Długość geograficzna: 002-02-27E, wysokość: 99 m

Aktualna obserwacja pogody

Raport powstał 34 minut temu, godzina 06:00 UTC
Cisza
Temperatura 15°C
Wilgotność 100%
Ciśnienie 1021 hPa
Widzialność 10 km lub więcej
Brak chmur poniżej 1500 m i brak chmur cumulonimbus

METAR: LFPT 210600Z AUTO 00000KT CAVOK 15/15 Q1021

czas: 08:34 (06:34 UTC)


TAF: brakujący

Obserwacja i prognoza pogody dla ponad 4000 lotnisk (raport METAR i TAF).

Dostępne stacje oznaczono żółtymi i czerwonymi punktami na mapie.

Najedź kursorem aby zobaczyć nazwę stacji.

Kliknij aby zobaczyć obserwacje i prognozy pogody.

Aby zmienić mapę: kliknij na zielony przycisk z czarnym krzyżykiem, aby powiększyć; na zielony przycisk z myślnikiem, aby pomniejszyć; na zielone strzałki, aby przejść do map sąsiednich.


METAR-TAF: